createdAt,value
2018-09-30T08:22:41.018Z,4.83
2018-09-30T08:25:09.273Z,7.83
2018-09-30T08:27:37.605Z,5.23
2018-09-30T08:30:06.165Z,5.60
2018-09-30T08:32:34.474Z,6.03
2018-09-30T08:35:02.746Z,4.43
2018-09-30T08:37:36.472Z,5.13
2018-09-30T08:40:04.815Z,3.63
2018-09-30T08:42:33.090Z,5.23
2018-09-30T08:45:01.250Z,4.50
2018-09-30T08:47:29.455Z,4.40
2018-09-30T08:49:57.658Z,5.13
2018-09-30T08:52:26.038Z,3.43
2018-09-30T08:54:54.278Z,3.03
2018-09-30T08:57:22.510Z,4.00
2018-09-30T08:59:50.869Z,4.33
2018-09-30T09:02:19.051Z,4.70
2018-09-30T09:04:47.310Z,6.73
2018-09-30T09:07:15.590Z,4.90
2018-09-30T09:09:44.379Z,4.93
2018-09-30T09:12:12.690Z,4.53
2018-09-30T09:14:41.031Z,3.13
2018-09-30T09:17:09.218Z,6.40
2018-09-30T09:19:37.490Z,2.57
2018-09-30T09:22:05.830Z,5.37
2018-09-30T09:24:36.730Z,4.47
2018-09-30T09:27:06.274Z,2.17
2018-09-30T09:29:34.593Z,3.63
2018-09-30T09:32:02.766Z,5.93
2018-09-30T09:34:30.966Z,5.70
2018-09-30T09:36:59.267Z,4.87
2018-09-30T09:39:27.526Z,5.03
2018-09-30T09:41:55.686Z,3.93
2018-09-30T09:44:23.970Z,5.60
2018-09-30T09:46:52.056Z,5.00
2018-09-30T09:49:20.314Z,6.17
2018-09-30T09:51:48.405Z,5.03
2018-09-30T09:54:16.666Z,3.97
2018-09-30T09:56:44.726Z,4.70
2018-09-30T09:59:13.203Z,6.03
2018-09-30T10:01:41.445Z,3.30
2018-09-30T10:04:09.754Z,3.70
2018-09-30T10:06:38.074Z,5.17
2018-09-30T10:09:06.586Z,2.77
2018-09-30T10:11:34.774Z,3.80
2018-09-30T10:14:03.183Z,5.00
2018-09-30T10:16:31.325Z,4.87
2018-09-30T10:18:59.553Z,3.97
2018-09-30T10:21:27.826Z,5.53
2018-09-30T10:23:56.047Z,5.97
2018-09-30T10:26:24.305Z,7.50
2018-09-30T10:28:52.486Z,5.80
2018-09-30T10:31:20.725Z,3.93
2018-09-30T10:33:48.925Z,3.07
2018-09-30T10:36:17.265Z,4.40
2018-09-30T10:38:45.510Z,4.03
2018-09-30T10:41:13.726Z,2.90
2018-09-30T10:43:41.794Z,3.27
2018-09-30T10:46:10.053Z,5.33
2018-09-30T10:48:38.194Z,4.33
2018-09-30T10:51:06.454Z,6.57
2018-09-30T10:53:34.686Z,5.07
2018-09-30T10:56:03.045Z,5.97
2018-09-30T10:58:31.185Z,11.20
2018-09-30T11:00:59.380Z,5.70
2018-09-30T11:03:27.591Z,5.70
2018-09-30T11:05:55.775Z,4.53
2018-09-30T11:08:23.944Z,3.93
2018-09-30T11:10:52.223Z,6.30
2018-09-30T11:13:20.394Z,5.97
2018-09-30T11:15:48.655Z,3.57
2018-09-30T11:18:16.754Z,5.37
2018-09-30T11:20:44.956Z,3.77
2018-09-30T11:23:13.168Z,4.23
2018-09-30T11:25:41.275Z,6.03
2018-09-30T11:28:09.475Z,4.67
2018-09-30T11:30:37.595Z,4.60
2018-09-30T11:33:05.807Z,7.73
2018-09-30T11:35:34.143Z,2.77
2018-09-30T11:38:02.416Z,5.47
2018-09-30T11:40:30.595Z,6.03
2018-09-30T11:46:30.837Z,4.47
2018-09-30T12:15:22.528Z,7.37
2018-09-30T20:31:30.541Z,8.40
2018-09-30T20:33:58.559Z,8.50
2018-09-30T20:36:27.180Z,9.73
2018-09-30T20:38:55.368Z,9.47
2018-09-30T20:41:23.919Z,11.60
2018-09-30T20:43:52.508Z,8.83
2018-09-30T20:46:20.776Z,7.30
2018-09-30T20:48:49.011Z,9.07
2018-09-30T20:51:17.057Z,9.23
2018-09-30T20:53:45.143Z,9.60
2018-09-30T20:56:13.194Z,9.53
2018-09-30T20:58:41.267Z,11.27
2018-09-30T21:01:09.214Z,10.77
2018-09-30T21:03:37.676Z,9.73
2018-09-30T21:06:12.577Z,17.33
2018-09-30T21:08:40.724Z,12.53
2018-09-30T21:11:08.916Z,12.53
2018-09-30T21:13:37.578Z,10.97
2018-09-30T21:16:05.904Z,16.37
2018-09-30T21:18:34.119Z,11.63
2018-09-30T21:21:02.304Z,11.20
2018-09-30T21:23:30.517Z,14.23
2018-09-30T21:25:58.677Z,13.50
2018-09-30T21:28:26.906Z,17.03
2018-09-30T21:30:55.437Z,14.53
2018-09-30T21:33:24.322Z,13.93
2018-09-30T21:35:52.722Z,10.57
2018-09-30T21:38:20.906Z,11.97
2018-09-30T21:40:49.169Z,13.80
2018-09-30T21:43:18.389Z,10.20
2018-09-30T21:45:46.637Z,13.00
2018-09-30T21:48:16.209Z,11.63
2018-09-30T21:50:44.509Z,12.60
2018-09-30T21:53:13.671Z,11.07
2018-09-30T21:55:41.877Z,15.80
2018-09-30T21:58:10.218Z,12.13
2018-09-30T22:00:40.418Z,12.27
2018-09-30T22:03:10.378Z,12.60
2018-09-30T22:05:38.709Z,12.93
2018-09-30T22:08:08.537Z,14.30
2018-09-30T22:10:37.499Z,16.17
2018-09-30T22:13:06.138Z,16.53
2018-09-30T22:15:34.489Z,12.03
2018-09-30T22:18:02.998Z,17.20
2018-09-30T22:20:31.338Z,15.50
2018-09-30T22:22:59.551Z,17.33
2018-09-30T22:25:27.698Z,12.77
2018-09-30T22:27:56.118Z,12.03
2018-09-30T22:30:24.238Z,16.93
2018-09-30T22:32:52.417Z,14.93
2018-09-30T22:35:20.601Z,15.53
2018-09-30T22:37:48.857Z,14.73
2018-09-30T22:40:17.095Z,12.97
2018-09-30T22:42:45.397Z,14.17
2018-09-30T22:45:13.578Z,12.30
2018-09-30T22:47:41.678Z,13.70
2018-09-30T22:50:09.998Z,14.70
2018-09-30T22:52:38.158Z,14.27
2018-09-30T22:55:06.438Z,11.17
2018-09-30T22:57:34.760Z,11.53
2018-09-30T23:00:03.269Z,15.37
2018-09-30T23:02:31.580Z,11.27
2018-09-30T23:04:59.830Z,12.67
2018-09-30T23:07:27.882Z,14.30
2018-09-30T23:09:56.335Z,14.83
2018-09-30T23:12:24.621Z,16.03
2018-09-30T23:14:52.935Z,13.00
2018-09-30T23:17:21.189Z,13.57
2018-09-30T23:19:49.427Z,13.33
2018-09-30T23:22:17.588Z,10.73
2018-09-30T23:24:45.807Z,12.73
2018-09-30T23:27:13.947Z,12.43
2018-09-30T23:29:42.207Z,12.40
2018-09-30T23:32:10.387Z,17.70
2018-09-30T23:34:38.707Z,11.00
2018-09-30T23:37:06.927Z,14.03
2018-09-30T23:39:35.189Z,14.57
2018-09-30T23:42:03.367Z,18.13
2018-09-30T23:44:31.575Z,15.17
2018-09-30T23:46:59.895Z,15.90
2018-09-30T23:49:28.097Z,17.43
2018-09-30T23:51:56.236Z,7.20
2018-09-30T23:54:24.807Z,13.87
2018-09-30T23:56:52.947Z,14.43
2018-09-30T23:59:21.147Z,10.10
